sensor_id;sensor_type;location;lat;lon;timestamp;temperature;humidity
12049;DHT22;6085;49.452;8.502;2022-09-09T00:01:49;15.70;99.90
12049;DHT22;6085;49.452;8.502;2022-09-09T00:05:58;15.70;99.90
12049;DHT22;6085;49.452;8.502;2022-09-09T00:10:09;15.80;99.90
12049;DHT22;6085;49.452;8.502;2022-09-09T00:14:22;15.90;99.90
12049;DHT22;6085;49.452;8.502;2022-09-09T00:18:28;16.10;99.90
12049;DHT22;6085;49.452;8.502;2022-09-09T00:22:32;16.20;99.90
12049;DHT22;6085;49.452;8.502;2022-09-09T00:26:39;16.30;99.90
12049;DHT22;6085;49.452;8.502;2022-09-09T00:30:43;16.30;99.90
12049;DHT22;6085;49.452;8.502;2022-09-09T00:34:49;16.30;99.90
12049;DHT22;6085;49.452;8.502;2022-09-09T00:38:56;16.40;99.90
12049;DHT22;6085;49.452;8.502;2022-09-09T00:43:18;16.30;99.90
12049;DHT22;6085;49.452;8.502;2022-09-09T00:47:48;16.40;99.90
12049;DHT22;6085;49.452;8.502;2022-09-09T00:51:58;16.40;99.90
12049;DHT22;6085;49.452;8.502;2022-09-09T00:56:09;16.50;99.90
12049;DHT22;6085;49.452;8.502;2022-09-09T01:00:19;16.50;99.90
12049;DHT22;6085;49.452;8.502;2022-09-09T01:04:29;16.50;99.90
12049;DHT22;6085;49.452;8.502;2022-09-09T01:08:47;16.50;99.90
12049;DHT22;6085;49.452;8.502;2022-09-09T01:12:52;16.60;99.90
12049;DHT22;6085;49.452;8.502;2022-09-09T01:16:58;16.50;99.90
12049;DHT22;6085;49.452;8.502;2022-09-09T01:21:09;16.50;99.90
12049;DHT22;6085;49.452;8.502;2022-09-09T01:26:03;16.40;99.90
12049;DHT22;6085;49.452;8.502;2022-09-09T01:30:09;16.30;99.90
12049;DHT22;6085;49.452;8.502;2022-09-09T01:34:13;16.20;99.90
12049;DHT22;6085;49.452;8.502;2022-09-09T01:38:15;16.20;99.90
12049;DHT22;6085;49.452;8.502;2022-09-09T01:42:19;16.10;99.90
12049;DHT22;6085;49.452;8.502;2022-09-09T01:46:22;16.10;99.90
12049;DHT22;6085;49.452;8.502;2022-09-09T01:50:24;16.20;99.90
12049;DHT22;6085;49.452;8.502;2022-09-09T01:54:28;16.20;99.90
12049;DHT22;6085;49.452;8.502;2022-09-09T01:58:41;16.20;99.90
12049;DHT22;6085;49.452;8.502;2022-09-09T02:02:52;16.30;99.90
12049;DHT22;6085;49.452;8.502;2022-09-09T02:06:57;16.30;99.90
12049;DHT22;6085;49.452;8.502;2022-09-09T02:11:03;16.40;99.90
12049;DHT22;6085;49.452;8.502;2022-09-09T02:15:16;16.40;99.90
12049;DHT22;6085;49.452;8.502;2022-09-09T02:19:22;16.50;99.90
12049;DHT22;6085;49.452;8.502;2022-09-09T02:23:26;16.50;99.90
12049;DHT22;6085;49.452;8.502;2022-09-09T02:27:29;16.40;99.90
12049;DHT22;6085;49.452;8.502;2022-09-09T02:31:33;16.30;99.90
12049;DHT22;6085;49.452;8.502;2022-09-09T02:35:38;16.30;99.90
12049;DHT22;6085;49.452;8.502;2022-09-09T02:39:40;16.30;99.90
12049;DHT22;6085;49.452;8.502;2022-09-09T02:43:42;16.40;99.90
12049;DHT22;6085;49.452;8.502;2022-09-09T02:47:50;16.40;99.90
12049;DHT22;6085;49.452;8.502;2022-09-09T02:52:01;16.40;99.90
12049;DHT22;6085;49.452;8.502;2022-09-09T02:56:05;16.40;99.90
12049;DHT22;6085;49.452;8.502;2022-09-09T03:00:11;16.30;99.90
12049;DHT22;6085;49.452;8.502;2022-09-09T03:04:14;16.20;99.90
12049;DHT22;6085;49.452;8.502;2022-09-09T03:08:16;16.10;99.90
12049;DHT22;6085;49.452;8.502;2022-09-09T03:12:18;16.10;99.90
12049;DHT22;6085;49.452;8.502;2022-09-09T03:16:21;16.20;99.90
12049;DHT22;6085;49.452;8.502;2022-09-09T03:20:24;16.10;99.90
12049;DHT22;6085;49.452;8.502;2022-09-09T03:24:27;16.00;99.90
12049;DHT22;6085;49.452;8.502;2022-09-09T03:28:28;16.00;99.90
12049;DHT22;6085;49.452;8.502;2022-09-09T03:32:31;16.00;99.90
12049;DHT22;6085;49.452;8.502;2022-09-09T03:36:34;15.90;99.90
12049;DHT22;6085;49.452;8.502;2022-09-09T03:40:36;16.00;99.90
12049;DHT22;6085;49.452;8.502;2022-09-09T03:44:38;16.00;99.90
12049;DHT22;6085;49.452;8.502;2022-09-09T03:48:40;15.90;99.90
12049;DHT22;6085;49.452;8.502;2022-09-09T03:52:43;15.90;99.90
12049;DHT22;6085;49.452;8.502;2022-09-09T03:56:45;15.90;99.90
12049;DHT22;6085;49.452;8.502;2022-09-09T04:00:53;15.80;99.90
12049;DHT22;6085;49.452;8.502;2022-09-09T04:04:55;15.80;99.90
12049;DHT22;6085;49.452;8.502;2022-09-09T04:08:58;15.80;99.90
12049;DHT22;6085;49.452;8.502;2022-09-09T04:13:00;15.80;99.90
12049;DHT22;6085;49.452;8.502;2022-09-09T04:17:01;15.80;99.90
12049;DHT22;6085;49.452;8.502;2022-09-09T04:21:06;15.70;99.90
12049;DHT22;6085;49.452;8.502;2022-09-09T04:25:10;15.70;99.90
12049;DHT22;6085;49.452;8.502;2022-09-09T04:29:12;15.70;99.90
12049;DHT22;6085;49.452;8.502;2022-09-09T04:33:14;15.70;99.90
12049;DHT22;6085;49.452;8.502;2022-09-09T04:37:17;15.80;99.90
12049;DHT22;6085;49.452;8.502;2022-09-09T04:41:20;15.80;99.90
12049;DHT22;6085;49.452;8.502;2022-09-09T04:45:22;15.80;99.90
12049;DHT22;6085;49.452;8.502;2022-09-09T04:49:24;15.80;99.90
12049;DHT22;6085;49.452;8.502;2022-09-09T04:53:26;15.80;99.90
12049;DHT22;6085;49.452;8.502;2022-09-09T04:57:29;15.80;99.90
12049;DHT22;6085;49.452;8.502;2022-09-09T05:01:32;15.80;99.90
12049;DHT22;6085;49.452;8.502;2022-09-09T05:05:34;15.80;99.90
12049;DHT22;6085;49.452;8.502;2022-09-09T05:09:36;15.80;99.90
12049;DHT22;6085;49.452;8.502;2022-09-09T05:13:39;15.80;99.90
12049;DHT22;6085;49.452;8.502;2022-09-09T05:17:41;15.80;99.90
12049;DHT22;6085;49.452;8.502;2022-09-09T05:21:43;15.80;99.90
12049;DHT22;6085;49.452;8.502;2022-09-09T05:25:57;15.80;99.90
12049;DHT22;6085;49.452;8.502;2022-09-09T05:30:00;15.90;99.90
12049;DHT22;6085;49.452;8.502;2022-09-09T05:34:02;16.00;99.90
12049;DHT22;6085;49.452;8.502;2022-09-09T05:38:04;16.20;99.90
12049;DHT22;6085;49.452;8.502;2022-09-09T05:42:06;16.30;99.90
12049;DHT22;6085;49.452;8.502;2022-09-09T05:46:10;16.40;99.90
12049;DHT22;6085;49.452;8.502;2022-09-09T05:50:13;16.40;99.90
12049;DHT22;6085;49.452;8.502;2022-09-09T05:54:15;16.40;99.90
12049;DHT22;6085;49.452;8.502;2022-09-09T05:58:17;16.40;99.90
12049;DHT22;6085;49.452;8.502;2022-09-09T06:02:20;16.40;99.90
12049;DHT22;6085;49.452;8.502;2022-09-09T06:06:23;16.50;99.90
12049;DHT22;6085;49.452;8.502;2022-09-09T06:10:26;16.60;99.90
12049;DHT22;6085;49.452;8.502;2022-09-09T06:14:28;16.60;99.90
12049;DHT22;6085;49.452;8.502;2022-09-09T06:18:31;16.70;99.90
12049;DHT22;6085;49.452;8.502;2022-09-09T06:22:33;16.90;99.90
12049;DHT22;6085;49.452;8.502;2022-09-09T06:26:36;17.10;99.90
12049;DHT22;6085;49.452;8.502;2022-09-09T06:30:41;17.30;99.90
12049;DHT22;6085;49.452;8.502;2022-09-09T06:34:44;17.20;99.90
12049;DHT22;6085;49.452;8.502;2022-09-09T06:38:47;17.10;99.90
12049;DHT22;6085;49.452;8.502;2022-09-09T06:42:49;17.00;99.90
12049;DHT22;6085;49.452;8.502;2022-09-09T06:46:51;17.10;99.90
12049;DHT22;6085;49.452;8.502;2022-09-09T06:51:02;17.20;99.90
12049;DHT22;6085;49.452;8.502;2022-09-09T06:55:05;17.30;99.90
12049;DHT22;6085;49.452;8.502;2022-09-09T06:59:08;17.50;99.90
12049;DHT22;6085;49.452;8.502;2022-09-09T07:03:10;17.50;99.90
12049;DHT22;6085;49.452;8.502;2022-09-09T07:07:13;17.60;99.90
12049;DHT22;6085;49.452;8.502;2022-09-09T07:11:16;18.10;99.90
12049;DHT22;6085;49.452;8.502;2022-09-09T07:15:18;18.80;99.90
12049;DHT22;6085;49.452;8.502;2022-09-09T07:19:20;19.20;99.90
12049;DHT22;6085;49.452;8.502;2022-09-09T07:23:23;19.10;99.90
12049;DHT22;6085;49.452;8.502;2022-09-09T07:27:25;19.60;99.90
12049;DHT22;6085;49.452;8.502;2022-09-09T07:31:29;20.00;99.90
12049;DHT22;6085;49.452;8.502;2022-09-09T07:35:31;20.10;99.90
12049;DHT22;6085;49.452;8.502;2022-09-09T07:39:34;19.70;99.90
12049;DHT22;6085;49.452;8.502;2022-09-09T07:43:36;19.40;99.90
12049;DHT22;6085;49.452;8.502;2022-09-09T07:47:38;19.30;99.90
12049;DHT22;6085;49.452;8.502;2022-09-09T07:51:43;19.30;99.90
12049;DHT22;6085;49.452;8.502;2022-09-09T07:55:46;19.30;99.90
12049;DHT22;6085;49.452;8.502;2022-09-09T07:59:48;19.30;99.90
12049;DHT22;6085;49.452;8.502;2022-09-09T08:03:53;19.50;99.90
12049;DHT22;6085;49.452;8.502;2022-09-09T08:07:56;19.60;99.90
12049;DHT22;6085;49.452;8.502;2022-09-09T08:11:59;19.90;99.90
12049;DHT22;6085;49.452;8.502;2022-09-09T08:16:07;20.60;99.90
12049;DHT22;6085;49.452;8.502;2022-09-09T08:20:09;21.40;99.90
12049;DHT22;6085;49.452;8.502;2022-09-09T08:24:12;20.90;99.90
12049;DHT22;6085;49.452;8.502;2022-09-09T08:28:16;20.00;99.90
12049;DHT22;6085;49.452;8.502;2022-09-09T08:32:18;19.60;99.90
12049;DHT22;6085;49.452;8.502;2022-09-09T08:36:21;19.30;99.90
12049;DHT22;6085;49.452;8.502;2022-09-09T08:40:29;19.00;99.90
12049;DHT22;6085;49.452;8.502;2022-09-09T08:44:44;19.40;99.90
12049;DHT22;6085;49.452;8.502;2022-09-09T08:48:56;19.90;99.90
12049;DHT22;6085;49.452;8.502;2022-09-09T08:53:02;20.40;99.90
12049;DHT22;6085;49.452;8.502;2022-09-09T08:57:13;20.40;99.90
12049;DHT22;6085;49.452;8.502;2022-09-09T09:01:28;20.50;99.90
12049;DHT22;6085;49.452;8.502;2022-09-09T09:05:37;20.70;99.90
12049;DHT22;6085;49.452;8.502;2022-09-09T09:09:48;21.30;99.90
12049;DHT22;6085;49.452;8.502;2022-09-09T09:13:56;22.10;99.90
12049;DHT22;6085;49.452;8.502;2022-09-09T09:18:01;24.40;99.90
12049;DHT22;6085;49.452;8.502;2022-09-09T09:22:10;27.30;99.90
12049;DHT22;6085;49.452;8.502;2022-09-09T09:26:15;29.40;99.90
12049;DHT22;6085;49.452;8.502;2022-09-09T09:30:19;26.40;99.90
12049;DHT22;6085;49.452;8.502;2022-09-09T09:34:23;24.30;99.90
12049;DHT22;6085;49.452;8.502;2022-09-09T09:38:27;23.20;99.90
12049;DHT22;6085;49.452;8.502;2022-09-09T09:42:29;22.60;99.90
12049;DHT22;6085;49.452;8.502;2022-09-09T09:46:31;22.00;99.90
12049;DHT22;6085;49.452;8.502;2022-09-09T09:50:35;21.50;99.90
12049;DHT22;6085;49.452;8.502;2022-09-09T09:54:38;20.40;99.90
12049;DHT22;6085;49.452;8.502;2022-09-09T09:58:50;18.70;99.90
12049;DHT22;6085;49.452;8.502;2022-09-09T10:02:53;17.30;99.90
12049;DHT22;6085;49.452;8.502;2022-09-09T10:06:58;16.50;99.90
12049;DHT22;6085;49.452;8.502;2022-09-09T10:11:12;16.00;99.90
12049;DHT22;6085;49.452;8.502;2022-09-09T10:15:30;16.00;99.90
12049;DHT22;6085;49.452;8.502;2022-09-09T10:19:34;16.90;99.90
12049;DHT22;6085;49.452;8.502;2022-09-09T10:23:51;17.70;99.90
12049;DHT22;6085;49.452;8.502;2022-09-09T10:28:24;18.50;99.90
12049;DHT22;6085;49.452;8.502;2022-09-09T10:32:41;19.50;99.90
12049;DHT22;6085;49.452;8.502;2022-09-09T10:36:47;21.20;99.90
12049;DHT22;6085;49.452;8.502;2022-09-09T10:41:13;23.60;99.90
12049;DHT22;6085;49.452;8.502;2022-09-09T10:45:19;23.40;99.90
12049;DHT22;6085;49.452;8.502;2022-09-09T10:49:32;22.50;99.90
12049;DHT22;6085;49.452;8.502;2022-09-09T10:53:48;21.80;99.90
12049;DHT22;6085;49.452;8.502;2022-09-09T10:57:58;21.30;99.90
12049;DHT22;6085;49.452;8.502;2022-09-09T11:02:03;21.70;99.90
12049;DHT22;6085;49.452;8.502;2022-09-09T11:06:14;23.50;99.90
12049;DHT22;6085;49.452;8.502;2022-09-09T11:10:22;25.00;99.90
12049;DHT22;6085;49.452;8.502;2022-09-09T11:14:31;23.70;99.90
12049;DHT22;6085;49.452;8.502;2022-09-09T11:18:37;21.70;99.90
12049;DHT22;6085;49.452;8.502;2022-09-09T11:22:47;21.00;99.90
12049;DHT22;6085;49.452;8.502;2022-09-09T11:26:52;21.10;99.90
12049;DHT22;6085;49.452;8.502;2022-09-09T11:31:07;21.50;99.90
12049;DHT22;6085;49.452;8.502;2022-09-09T11:35:29;22.30;99.90
12049;DHT22;6085;49.452;8.502;2022-09-09T11:39:49;21.80;99.90
12049;DHT22;6085;49.452;8.502;2022-09-09T11:43:53;22.40;99.90
12049;DHT22;6085;49.452;8.502;2022-09-09T11:47:57;24.30;99.90
12049;DHT22;6085;49.452;8.502;2022-09-09T11:51:59;25.60;99.90
12049;DHT22;6085;49.452;8.502;2022-09-09T11:56:13;23.80;99.90
12049;DHT22;6085;49.452;8.502;2022-09-09T12:00:33;23.00;99.90
12049;DHT22;6085;49.452;8.502;2022-09-09T12:04:37;22.60;99.90
12049;DHT22;6085;49.452;8.502;2022-09-09T12:08:42;23.30;99.90
12049;DHT22;6085;49.452;8.502;2022-09-09T12:12:45;24.40;99.90
12049;DHT22;6085;49.452;8.502;2022-09-09T12:16:48;24.40;99.90
12049;DHT22;6085;49.452;8.502;2022-09-09T12:20:57;23.40;99.90
12049;DHT22;6085;49.452;8.502;2022-09-09T12:25:14;22.20;99.90
12049;DHT22;6085;49.452;8.502;2022-09-09T12:29:25;21.40;99.90
12049;DHT22;6085;49.452;8.502;2022-09-09T12:33:34;20.70;99.90
12049;DHT22;6085;49.452;8.502;2022-09-09T12:37:40;20.20;99.90
12049;DHT22;6085;49.452;8.502;2022-09-09T12:41:51;20.30;99.90
12049;DHT22;6085;49.452;8.502;2022-09-09T12:45:56;21.30;99.90
12049;DHT22;6085;49.452;8.502;2022-09-09T12:49:59;21.80;99.90
12049;DHT22;6085;49.452;8.502;2022-09-09T12:54:03;22.00;99.90
12049;DHT22;6085;49.452;8.502;2022-09-09T12:58:06;22.30;99.90
12049;DHT22;6085;49.452;8.502;2022-09-09T13:02:19;22.50;99.90
12049;DHT22;6085;49.452;8.502;2022-09-09T13:06:23;23.20;99.90
12049;DHT22;6085;49.452;8.502;2022-09-09T13:10:29;23.70;99.90
12049;DHT22;6085;49.452;8.502;2022-09-09T13:14:35;23.00;99.90
12049;DHT22;6085;49.452;8.502;2022-09-09T13:18:40;21.90;99.90
12049;DHT22;6085;49.452;8.502;2022-09-09T13:22:42;21.00;99.90
12049;DHT22;6085;49.452;8.502;2022-09-09T13:26:54;20.10;99.90
12049;DHT22;6085;49.452;8.502;2022-09-09T13:30:59;19.40;99.90
12049;DHT22;6085;49.452;8.502;2022-09-09T13:35:01;19.00;99.90
12049;DHT22;6085;49.452;8.502;2022-09-09T13:39:03;19.10;99.90
12049;DHT22;6085;49.452;8.502;2022-09-09T13:43:18;19.70;99.90
12049;DHT22;6085;49.452;8.502;2022-09-09T13:47:28;19.90;99.90
12049;DHT22;6085;49.452;8.502;2022-09-09T13:51:36;20.60;99.90
12049;DHT22;6085;49.452;8.502;2022-09-09T13:55:38;20.80;99.90
12049;DHT22;6085;49.452;8.502;2022-09-09T13:59:42;21.10;99.90
12049;DHT22;6085;49.452;8.502;2022-09-09T14:03:44;21.40;99.90
12049;DHT22;6085;49.452;8.502;2022-09-09T14:07:46;21.50;99.90
12049;DHT22;6085;49.452;8.502;2022-09-09T14:11:48;21.80;99.90
12049;DHT22;6085;49.452;8.502;2022-09-09T14:15:51;22.20;99.90
12049;DHT22;6085;49.452;8.502;2022-09-09T14:19:54;22.20;99.90
12049;DHT22;6085;49.452;8.502;2022-09-09T14:23:56;21.70;99.90
12049;DHT22;6085;49.452;8.502;2022-09-09T14:27:59;21.20;99.90
12049;DHT22;6085;49.452;8.502;2022-09-09T14:32:02;20.80;99.90
12049;DHT22;6085;49.452;8.502;2022-09-09T14:36:04;20.60;99.90
12049;DHT22;6085;49.452;8.502;2022-09-09T14:40:07;20.60;99.90
12049;DHT22;6085;49.452;8.502;2022-09-09T14:44:09;20.60;99.90
12049;DHT22;6085;49.452;8.502;2022-09-09T14:48:12;20.40;99.90
12049;DHT22;6085;49.452;8.502;2022-09-09T14:52:15;20.20;99.90
12049;DHT22;6085;49.452;8.502;2022-09-09T14:56:19;20.20;99.90
12049;DHT22;6085;49.452;8.502;2022-09-09T15:00:21;20.00;99.90
12049;DHT22;6085;49.452;8.502;2022-09-09T15:04:24;19.70;99.90
12049;DHT22;6085;49.452;8.502;2022-09-09T15:08:26;19.60;99.90
12049;DHT22;6085;49.452;8.502;2022-09-09T15:12:28;19.20;99.90
12049;DHT22;6085;49.452;8.502;2022-09-09T15:16:31;18.70;99.90
12049;DHT22;6085;49.452;8.502;2022-09-09T15:20:34;17.90;99.90
12049;DHT22;6085;49.452;8.502;2022-09-09T15:24:37;17.00;99.90
12049;DHT22;6085;49.452;8.502;2022-09-09T15:28:40;16.20;99.90
12049;DHT22;6085;49.452;8.502;2022-09-09T15:32:44;15.60;99.90
12049;DHT22;6085;49.452;8.502;2022-09-09T15:36:47;15.20;99.90
12049;DHT22;6085;49.452;8.502;2022-09-09T15:40:53;14.90;99.90
12049;DHT22;6085;49.452;8.502;2022-09-09T15:44:55;14.70;99.90
12049;DHT22;6085;49.452;8.502;2022-09-09T15:49:02;14.80;99.90
12049;DHT22;6085;49.452;8.502;2022-09-09T15:53:05;14.90;99.90
12049;DHT22;6085;49.452;8.502;2022-09-09T15:57:10;15.20;99.90
12049;DHT22;6085;49.452;8.502;2022-09-09T16:01:12;15.40;99.90
12049;DHT22;6085;49.452;8.502;2022-09-09T16:05:16;15.70;99.90
12049;DHT22;6085;49.452;8.502;2022-09-09T16:09:19;16.00;99.90
12049;DHT22;6085;49.452;8.502;2022-09-09T16:13:21;16.20;99.90
12049;DHT22;6085;49.452;8.502;2022-09-09T16:17:23;16.40;99.90
12049;DHT22;6085;49.452;8.502;2022-09-09T16:21:26;16.40;99.90
12049;DHT22;6085;49.452;8.502;2022-09-09T16:25:30;16.40;99.90
12049;DHT22;6085;49.452;8.502;2022-09-09T16:29:32;16.40;99.90
12049;DHT22;6085;49.452;8.502;2022-09-09T16:33:34;16.30;99.90
12049;DHT22;6085;49.452;8.502;2022-09-09T16:37:36;16.20;99.90
12049;DHT22;6085;49.452;8.502;2022-09-09T16:41:40;16.10;99.90
12049;DHT22;6085;49.452;8.502;2022-09-09T16:45:44;16.00;99.90
12049;DHT22;6085;49.452;8.502;2022-09-09T16:49:46;15.90;99.90
12049;DHT22;6085;49.452;8.502;2022-09-09T16:53:47;15.90;99.90
12049;DHT22;6085;49.452;8.502;2022-09-09T16:57:50;15.90;99.90
12049;DHT22;6085;49.452;8.502;2022-09-09T17:01:54;15.90;99.90
12049;DHT22;6085;49.452;8.502;2022-09-09T17:05:56;15.90;99.90
12049;DHT22;6085;49.452;8.502;2022-09-09T17:09:58;16.00;99.90
12049;DHT22;6085;49.452;8.502;2022-09-09T17:14:02;15.90;99.90
12049;DHT22;6085;49.452;8.502;2022-09-09T17:18:04;15.80;99.90
12049;DHT22;6085;49.452;8.502;2022-09-09T17:22:07;15.70;99.90
12049;DHT22;6085;49.452;8.502;2022-09-09T17:26:10;15.70;99.90
12049;DHT22;6085;49.452;8.502;2022-09-09T17:30:14;15.60;99.90
12049;DHT22;6085;49.452;8.502;2022-09-09T17:34:16;15.50;99.90
12049;DHT22;6085;49.452;8.502;2022-09-09T17:38:18;15.60;99.90
12049;DHT22;6085;49.452;8.502;2022-09-09T17:42:20;15.80;99.90
12049;DHT22;6085;49.452;8.502;2022-09-09T17:46:25;15.90;99.90
12049;DHT22;6085;49.452;8.502;2022-09-09T17:50:28;16.10;99.90
12049;DHT22;6085;49.452;8.502;2022-09-09T17:54:29;16.30;99.90
12049;DHT22;6085;49.452;8.502;2022-09-09T17:58:33;16.50;99.90
12049;DHT22;6085;49.452;8.502;2022-09-09T18:02:37;16.70;99.90
12049;DHT22;6085;49.452;8.502;2022-09-09T18:06:41;16.80;99.90
12049;DHT22;6085;49.452;8.502;2022-09-09T18:10:51;16.20;99.90
12049;DHT22;6085;49.452;8.502;2022-09-09T18:14:55;15.50;99.90
12049;DHT22;6085;49.452;8.502;2022-09-09T18:18:58;15.10;99.90
12049;DHT22;6085;49.452;8.502;2022-09-09T18:23:00;14.80;99.90
12049;DHT22;6085;49.452;8.502;2022-09-09T18:27:02;14.50;99.90
12049;DHT22;6085;49.452;8.502;2022-09-09T18:31:06;14.30;99.90
12049;DHT22;6085;49.452;8.502;2022-09-09T18:35:09;14.10;99.90
12049;DHT22;6085;49.452;8.502;2022-09-09T18:39:13;13.90;99.90
12049;DHT22;6085;49.452;8.502;2022-09-09T18:43:15;13.90;99.90
12049;DHT22;6085;49.452;8.502;2022-09-09T18:47:18;13.80;99.90
12049;DHT22;6085;49.452;8.502;2022-09-09T18:51:24;13.90;99.90
12049;DHT22;6085;49.452;8.502;2022-09-09T18:55:26;13.90;99.90
12049;DHT22;6085;49.452;8.502;2022-09-09T18:59:29;13.90;99.90
12049;DHT22;6085;49.452;8.502;2022-09-09T19:03:33;13.90;99.90
12049;DHT22;6085;49.452;8.502;2022-09-09T19:07:37;13.90;99.90
12049;DHT22;6085;49.452;8.502;2022-09-09T19:11:41;13.90;99.90
12049;DHT22;6085;49.452;8.502;2022-09-09T19:15:42;13.90;99.90
12049;DHT22;6085;49.452;8.502;2022-09-09T19:19:44;14.00;99.90
12049;DHT22;6085;49.452;8.502;2022-09-09T19:23:53;13.90;99.90
12049;DHT22;6085;49.452;8.502;2022-09-09T19:27:55;14.00;99.90
12049;DHT22;6085;49.452;8.502;2022-09-09T19:31:59;14.00;99.90
12049;DHT22;6085;49.452;8.502;2022-09-09T19:36:04;14.00;99.90
12049;DHT22;6085;49.452;8.502;2022-09-09T19:40:09;14.00;99.90
12049;DHT22;6085;49.452;8.502;2022-09-09T19:44:13;14.00;99.90
12049;DHT22;6085;49.452;8.502;2022-09-09T19:48:15;14.00;99.90
12049;DHT22;6085;49.452;8.502;2022-09-09T19:52:17;13.90;99.90
12049;DHT22;6085;49.452;8.502;2022-09-09T19:56:21;13.90;99.90
12049;DHT22;6085;49.452;8.502;2022-09-09T20:00:24;14.00;99.90
12049;DHT22;6085;49.452;8.502;2022-09-09T20:04:26;14.00;99.90
12049;DHT22;6085;49.452;8.502;2022-09-09T20:08:28;14.00;99.90
12049;DHT22;6085;49.452;8.502;2022-09-09T20:12:32;14.10;99.90
12049;DHT22;6085;49.452;8.502;2022-09-09T20:16:34;14.10;99.90
12049;DHT22;6085;49.452;8.502;2022-09-09T20:20:39;14.10;99.90
12049;DHT22;6085;49.452;8.502;2022-09-09T20:24:41;14.10;99.90
12049;DHT22;6085;49.452;8.502;2022-09-09T20:28:44;14.10;99.90
12049;DHT22;6085;49.452;8.502;2022-09-09T20:32:46;14.10;99.90
12049;DHT22;6085;49.452;8.502;2022-09-09T20:36:48;14.10;99.90
12049;DHT22;6085;49.452;8.502;2022-09-09T20:40:50;14.10;99.90
12049;DHT22;6085;49.452;8.502;2022-09-09T20:44:54;14.10;99.90
12049;DHT22;6085;49.452;8.502;2022-09-09T20:48:56;14.10;99.90
12049;DHT22;6085;49.452;8.502;2022-09-09T20:52:58;14.20;99.90
12049;DHT22;6085;49.452;8.502;2022-09-09T20:57:00;14.20;99.90
12049;DHT22;6085;49.452;8.502;2022-09-09T21:01:04;14.20;99.90
12049;DHT22;6085;49.452;8.502;2022-09-09T21:05:10;14.20;99.90
12049;DHT22;6085;49.452;8.502;2022-09-09T21:09:13;14.30;99.90
12049;DHT22;6085;49.452;8.502;2022-09-09T21:13:15;14.30;99.90
12049;DHT22;6085;49.452;8.502;2022-09-09T21:17:18;14.30;99.90
12049;DHT22;6085;49.452;8.502;2022-09-09T21:21:21;14.30;99.90
12049;DHT22;6085;49.452;8.502;2022-09-09T21:25:26;14.40;99.90
12049;DHT22;6085;49.452;8.502;2022-09-09T21:29:28;14.50;99.90
12049;DHT22;6085;49.452;8.502;2022-09-09T21:33:32;14.50;99.90
12049;DHT22;6085;49.452;8.502;2022-09-09T21:37:34;14.50;99.90
12049;DHT22;6085;49.452;8.502;2022-09-09T21:41:36;14.50;99.90
12049;DHT22;6085;49.452;8.502;2022-09-09T21:45:39;14.50;99.90
12049;DHT22;6085;49.452;8.502;2022-09-09T21:49:42;14.50;99.90
12049;DHT22;6085;49.452;8.502;2022-09-09T21:53:44;14.60;99.90
12049;DHT22;6085;49.452;8.502;2022-09-09T21:57:46;14.60;99.90
12049;DHT22;6085;49.452;8.502;2022-09-09T22:01:49;14.60;99.90
12049;DHT22;6085;49.452;8.502;2022-09-09T22:05:53;14.50;99.90
12049;DHT22;6085;49.452;8.502;2022-09-09T22:09:55;14.50;99.90
12049;DHT22;6085;49.452;8.502;2022-09-09T22:13:57;14.60;99.90
12049;DHT22;6085;49.452;8.502;2022-09-09T22:17:59;14.60;99.90
12049;DHT22;6085;49.452;8.502;2022-09-09T22:22:04;14.60;99.90
12049;DHT22;6085;49.452;8.502;2022-09-09T22:26:06;14.60;99.90
12049;DHT22;6085;49.452;8.502;2022-09-09T22:30:09;14.70;99.90
12049;DHT22;6085;49.452;8.502;2022-09-09T22:34:11;14.70;99.90
12049;DHT22;6085;49.452;8.502;2022-09-09T22:38:14;14.70;99.90
12049;DHT22;6085;49.452;8.502;2022-09-09T22:42:16;14.70;99.90
12049;DHT22;6085;49.452;8.502;2022-09-09T22:46:19;14.70;99.90
12049;DHT22;6085;49.452;8.502;2022-09-09T22:50:21;14.70;99.90
12049;DHT22;6085;49.452;8.502;2022-09-09T22:54:24;14.70;99.90
12049;DHT22;6085;49.452;8.502;2022-09-09T22:58:27;14.80;99.90
12049;DHT22;6085;49.452;8.502;2022-09-09T23:02:30;14.80;99.90
12049;DHT22;6085;49.452;8.502;2022-09-09T23:06:32;14.70;99.90
12049;DHT22;6085;49.452;8.502;2022-09-09T23:10:39;14.60;99.90
12049;DHT22;6085;49.452;8.502;2022-09-09T23:14:42;14.60;99.90
12049;DHT22;6085;49.452;8.502;2022-09-09T23:18:45;14.60;99.90
12049;DHT22;6085;49.452;8.502;2022-09-09T23:22:47;14.60;99.90
12049;DHT22;6085;49.452;8.502;2022-09-09T23:26:51;14.60;99.90
12049;DHT22;6085;49.452;8.502;2022-09-09T23:30:52;14.60;99.90
12049;DHT22;6085;49.452;8.502;2022-09-09T23:34:55;14.70;99.90
12049;DHT22;6085;49.452;8.502;2022-09-09T23:38:58;14.70;99.90
12049;DHT22;6085;49.452;8.502;2022-09-09T23:43:04;14.70;99.90
12049;DHT22;6085;49.452;8.502;2022-09-09T23:47:07;14.80;99.90
12049;DHT22;6085;49.452;8.502;2022-09-09T23:51:11;14.80;99.90
12049;DHT22;6085;49.452;8.502;2022-09-09T23:55:17;14.80;99.90
12049;DHT22;6085;49.452;8.502;2022-09-09T23:59:20;14.80;99.90
